createdAt,value
2023-06-22T00:00:18.519Z,22.96
2023-06-22T00:03:22.882Z,22.98
2023-06-22T00:06:25.760Z,22.87
2023-06-22T00:09:28.632Z,22.84
2023-06-22T00:12:31.631Z,22.75
2023-06-22T00:15:35.194Z,22.74
2023-06-22T00:18:38.011Z,22.65
2023-06-22T00:21:40.739Z,22.64
2023-06-22T00:24:43.732Z,22.68
2023-06-22T00:27:46.568Z,22.66
2023-06-22T00:30:50.837Z,22.62
2023-06-22T00:33:55.021Z,22.67
2023-06-22T00:36:57.760Z,22.64
2023-06-22T00:40:00.516Z,22.67
2023-06-22T00:43:04.009Z,22.73
2023-06-22T00:46:07.017Z,22.70
2023-06-22T00:49:09.992Z,22.71
2023-06-22T00:52:15.259Z,22.66
2023-06-22T00:55:19.175Z,22.63
2023-06-22T00:58:23.203Z,22.58
2023-06-22T01:01:26.154Z,22.50
2023-06-22T01:04:36.856Z,22.47
2023-06-22T01:07:49.759Z,22.43
2023-06-22T01:11:06.941Z,22.39
2023-06-22T01:14:23.943Z,22.33
2023-06-22T01:17:28.843Z,22.29
2023-06-22T01:20:33.417Z,22.26
2023-06-22T01:24:24.972Z,22.24
2023-06-22T01:27:38.189Z,22.31
2023-06-22T01:30:41.843Z,22.29
2023-06-22T01:33:48.251Z,22.27
2023-06-22T01:36:52.990Z,22.26
2023-06-22T01:39:57.050Z,22.26
2023-06-22T01:43:02.471Z,22.23
2023-06-22T01:46:05.401Z,22.23
2023-06-22T01:49:09.276Z,22.23
2023-06-22T01:52:12.922Z,22.16
2023-06-22T01:55:15.724Z,22.12
2023-06-22T01:58:21.472Z,22.10
2023-06-22T02:01:32.975Z,22.12
2023-06-22T02:05:08.211Z,22.14
2023-06-22T02:08:17.811Z,22.11
2023-06-22T02:11:22.806Z,22.12
2023-06-22T02:14:26.953Z,22.06
2023-06-22T02:17:34.273Z,22.11
2023-06-22T02:20:38.902Z,22.06
2023-06-22T02:23:41.616Z,22.06
2023-06-22T02:26:46.737Z,22.02
2023-06-22T02:29:49.494Z,22.11
2023-06-22T02:33:00.392Z,22.02
2023-06-22T02:36:06.469Z,21.97
2023-06-22T02:39:09.376Z,21.92
2023-06-22T02:42:13.478Z,21.86
2023-06-22T02:45:16.349Z,21.80
2023-06-22T02:48:20.047Z,21.78
2023-06-22T02:51:22.799Z,21.81
2023-06-22T02:54:25.557Z,21.77
2023-06-22T02:57:31.268Z,21.75
2023-06-22T03:00:34.472Z,21.77
2023-06-22T03:03:37.262Z,21.86
2023-06-22T03:06:42.068Z,21.93
2023-06-22T03:09:45.123Z,21.89
2023-06-22T03:12:48.509Z,21.87
2023-06-22T03:15:51.364Z,21.89
2023-06-22T03:18:54.780Z,21.91
2023-06-22T03:21:57.548Z,21.94
2023-06-22T03:25:02.108Z,21.92
2023-06-22T03:28:05.121Z,21.96
2023-06-22T03:31:08.141Z,22.04
2023-06-22T03:34:12.374Z,22.08
2023-06-22T03:37:15.956Z,22.13
2023-06-22T03:40:18.950Z,22.23
2023-06-22T03:43:22.048Z,22.27
2023-06-22T03:46:25.011Z,22.29
2023-06-22T03:49:28.553Z,22.31
2023-06-22T03:52:31.667Z,22.29
2023-06-22T03:55:35.516Z,22.35
2023-06-22T03:58:44.205Z,22.44
2023-06-22T04:01:47.821Z,22.40
2023-06-22T04:04:50.590Z,22.27
2023-06-22T04:07:53.359Z,22.26
2023-06-22T04:10:56.083Z,22.25
2023-06-22T04:13:58.857Z,22.20
2023-06-22T04:17:01.617Z,22.23
2023-06-22T04:20:05.328Z,22.26
2023-06-22T04:23:08.168Z,22.28
2023-06-22T04:26:10.833Z,22.29
2023-06-22T04:29:14.263Z,22.44
2023-06-22T04:32:17.599Z,22.63
2023-06-22T04:35:20.383Z,22.67
2023-06-22T04:38:23.170Z,22.67
2023-06-22T04:41:25.865Z,22.86
2023-06-22T04:44:29.035Z,23.02
2023-06-22T04:47:31.838Z,22.92
2023-06-22T04:50:34.627Z,23.05
2023-06-22T04:53:37.320Z,23.19
2023-06-22T04:56:42.135Z,23.35
2023-06-22T04:59:45.488Z,23.58
2023-06-22T05:02:48.647Z,23.41
2023-06-22T05:05:51.481Z,23.33
2023-06-22T05:09:01.241Z,23.39
2023-06-22T05:12:07.736Z,23.54
2023-06-22T05:15:11.880Z,23.65
2023-06-22T05:18:14.772Z,23.86
2023-06-22T05:21:17.636Z,24.09
2023-06-22T05:24:20.461Z,23.98
2023-06-22T05:27:23.383Z,24.02
2023-06-22T05:30:26.120Z,24.17
2023-06-22T05:33:28.963Z,24.15
2023-06-22T05:36:31.715Z,24.28
2023-06-22T05:39:34.434Z,24.61
2023-06-22T05:42:37.184Z,24.95
2023-06-22T05:45:39.976Z,25.36
2023-06-22T05:48:42.748Z,25.31
2023-06-22T05:51:45.628Z,25.51
2023-06-22T05:54:50.941Z,25.78
2023-06-22T05:57:53.844Z,26.03
2023-06-22T06:00:56.763Z,26.33
2023-06-22T06:04:01.003Z,26.78
2023-06-22T06:07:15.820Z,26.37
2023-06-22T06:10:22.040Z,26.31
2023-06-22T06:13:29.346Z,26.62
2023-06-22T06:16:32.214Z,26.91
2023-06-22T06:19:35.250Z,27.09
2023-06-22T06:22:37.956Z,26.95
2023-06-22T06:26:30.884Z,27.46
2023-06-22T06:29:34.004Z,27.86
2023-06-22T06:32:36.741Z,28.13
2023-06-22T06:35:39.723Z,28.21
2023-06-22T06:38:42.426Z,28.59
2023-06-22T06:41:45.309Z,28.64
2023-06-22T06:44:51.835Z,28.81
2023-06-22T06:48:10.670Z,29.01
2023-06-22T06:51:27.890Z,28.64
2023-06-22T06:54:31.113Z,28.22
2023-06-22T06:57:35.146Z,28.46
2023-06-22T07:00:38.212Z,28.65
2023-06-22T07:03:41.010Z,27.84
2023-06-22T07:06:47.158Z,28.96
2023-06-22T07:09:49.942Z,29.73
2023-06-22T07:12:55.945Z,30.00
2023-06-22T07:16:02.871Z,30.40
2023-06-22T07:19:06.809Z,30.60
2023-06-22T07:22:13.358Z,31.92
2023-06-22T07:25:16.652Z,32.03
2023-06-22T07:28:20.802Z,32.43
2023-06-22T07:31:28.101Z,32.93
2023-06-22T07:34:30.939Z,33.10
2023-06-22T07:37:35.267Z,34.13
2023-06-22T07:40:38.022Z,32.95
2023-06-22T07:43:40.770Z,32.70
2023-06-22T07:46:43.742Z,32.77
2023-06-22T07:49:47.753Z,32.18
2023-06-22T07:52:50.854Z,33.70
2023-06-22T07:55:53.691Z,33.71
2023-06-22T07:58:59.398Z,34.29
2023-06-22T08:02:08.509Z,34.41
2023-06-22T08:05:20.871Z,34.58
2023-06-22T08:08:25.366Z,34.65
2023-06-22T08:11:28.521Z,35.52
2023-06-22T08:14:31.655Z,35.19
2023-06-22T08:17:35.019Z,35.31
2023-06-22T08:20:37.935Z,36.63
2023-06-22T08:23:40.814Z,36.93
2023-06-22T08:26:43.660Z,38.08
2023-06-22T08:29:50.899Z,38.07
2023-06-22T08:32:55.069Z,37.29
2023-06-22T08:35:59.720Z,38.36
2023-06-22T08:39:04.472Z,38.19
2023-06-22T08:42:07.617Z,38.60
2023-06-22T08:45:11.220Z,39.17
2023-06-22T08:48:14.068Z,38.85
2023-06-22T08:51:19.971Z,38.58
2023-06-22T08:54:22.807Z,39.78
2023-06-22T08:57:25.550Z,39.06
2023-06-22T09:00:30.541Z,39.65
2023-06-22T09:03:34.324Z,39.31
2023-06-22T09:06:39.301Z,39.50
2023-06-22T09:09:42.163Z,39.61
2023-06-22T09:12:45.055Z,39.70
2023-06-22T09:15:47.944Z,39.89
2023-06-22T09:18:51.013Z,39.33
2023-06-22T09:21:53.893Z,39.46
2023-06-22T09:24:57.331Z,40.53
2023-06-22T09:28:00.178Z,38.95
2023-06-22T09:31:05.828Z,38.78
2023-06-22T09:34:08.641Z,38.39
2023-06-22T09:37:11.481Z,37.45
2023-06-22T09:40:17.029Z,39.80
2023-06-22T09:43:19.912Z,40.96
2023-06-22T09:46:26.621Z,38.98
2023-06-22T09:49:47.307Z,37.88
2023-06-22T09:52:56.114Z,40.02
2023-06-22T09:55:59.562Z,41.04
2023-06-22T09:59:17.109Z,39.36
2023-06-22T10:02:21.194Z,39.82
2023-06-22T10:05:24.589Z,38.69
2023-06-22T10:08:27.702Z,39.63
2023-06-22T10:11:32.077Z,40.07
2023-06-22T10:14:34.932Z,39.16
2023-06-22T10:17:37.708Z,39.27
2023-06-22T10:20:40.740Z,37.96
2023-06-22T10:23:43.525Z,39.04
2023-06-22T10:26:46.303Z,40.76
2023-06-22T10:29:50.088Z,40.75
2023-06-22T10:32:53.302Z,42.23
2023-06-22T10:36:08.526Z,41.31
2023-06-22T10:39:14.002Z,42.05
2023-06-22T10:42:16.762Z,41.71
2023-06-22T10:45:20.247Z,42.43
2023-06-22T10:48:23.001Z,39.11
2023-06-22T10:51:26.884Z,38.08
2023-06-22T10:54:30.369Z,38.07
2023-06-22T10:57:33.216Z,39.11
2023-06-22T11:00:35.943Z,40.75
2023-06-22T11:03:38.855Z,42.04
2023-06-22T11:06:41.780Z,42.07
2023-06-22T11:09:45.065Z,41.18
2023-06-22T11:12:47.961Z,41.36
2023-06-22T11:15:50.868Z,39.46
2023-06-22T11:18:53.632Z,39.36
2023-06-22T11:21:56.362Z,39.99
2023-06-22T11:24:59.100Z,40.43
2023-06-22T11:28:05.486Z,41.18
2023-06-22T11:31:24.398Z,40.71
2023-06-22T11:34:29.255Z,38.48
2023-06-22T11:37:32.519Z,39.52
2023-06-22T11:40:38.327Z,39.54
2023-06-22T11:43:41.144Z,40.24
2023-06-22T11:46:43.850Z,38.83
2023-06-22T11:49:47.145Z,37.65
2023-06-22T11:52:49.915Z,37.61
2023-06-22T11:55:53.868Z,38.21
2023-06-22T11:58:56.633Z,38.38
2023-06-22T12:01:59.843Z,39.60
2023-06-22T12:05:06.226Z,38.79
2023-06-22T12:08:09.103Z,38.97
2023-06-22T12:11:11.797Z,39.83
2023-06-22T12:14:14.638Z,40.07
2023-06-22T12:17:17.475Z,39.98
2023-06-22T12:20:20.660Z,38.79
2023-06-22T12:23:23.378Z,38.99
2023-06-22T12:26:26.216Z,40.29
2023-06-22T12:29:29.021Z,39.16
2023-06-22T12:32:31.856Z,40.06
2023-06-22T12:35:34.554Z,38.74
2023-06-22T12:38:37.334Z,38.02
2023-06-22T12:41:40.163Z,37.17
2023-06-22T12:44:43.504Z,37.20
2023-06-22T12:47:46.345Z,37.16
2023-06-22T12:50:49.282Z,37.44
2023-06-22T12:53:52.091Z,35.62
2023-06-22T12:56:56.243Z,35.64
2023-06-22T13:00:01.680Z,37.88
2023-06-22T13:03:04.573Z,38.84
2023-06-22T13:06:07.315Z,40.13
2023-06-22T13:12:17.167Z,38.74
2023-06-22T13:15:19.889Z,38.50
2023-06-22T13:18:22.689Z,37.14
2023-06-22T13:21:25.499Z,36.30
2023-06-22T13:24:28.243Z,37.14
2023-06-22T13:27:30.954Z,37.29
2023-06-22T13:30:33.885Z,36.12
2023-06-22T13:33:36.737Z,36.70
2023-06-22T13:36:39.574Z,37.13
2023-06-22T13:39:43.143Z,36.59
2023-06-22T13:42:45.902Z,36.56
2023-06-22T13:45:48.597Z,36.15
2023-06-22T13:48:51.321Z,36.04
2023-06-22T13:51:54.074Z,35.95
2023-06-22T13:54:56.998Z,35.93
2023-06-22T13:57:59.862Z,36.16
2023-06-22T14:01:02.644Z,35.99
2023-06-22T14:04:05.633Z,36.16
2023-06-22T14:07:08.667Z,35.24
2023-06-22T14:10:11.416Z,35.13
2023-06-22T14:13:14.116Z,34.79
2023-06-22T14:16:16.877Z,34.95
2023-06-22T14:19:19.831Z,35.52
2023-06-22T14:22:23.598Z,35.20
2023-06-22T14:25:26.482Z,35.65
2023-06-22T14:28:29.199Z,34.73
2023-06-22T14:31:31.963Z,35.05
2023-06-22T14:34:37.192Z,35.30
2023-06-22T14:37:39.987Z,34.57
2023-06-22T14:40:53.871Z,34.76
2023-06-22T14:44:05.456Z,35.52
2023-06-22T14:47:08.853Z,35.71
2023-06-22T14:50:11.739Z,35.58
2023-06-22T14:53:15.465Z,35.53
2023-06-22T14:56:18.263Z,34.91
2023-06-22T14:59:20.972Z,34.69
2023-06-22T15:02:24.438Z,34.45
2023-06-22T15:05:27.368Z,34.80
2023-06-22T15:08:30.601Z,35.23
2023-06-22T15:11:34.849Z,34.70
2023-06-22T15:14:37.779Z,34.76
2023-06-22T15:17:40.554Z,34.86
2023-06-22T15:20:46.665Z,34.65
2023-06-22T15:23:49.459Z,34.77
2023-06-22T15:26:52.316Z,34.83
2023-06-22T15:29:55.088Z,34.31
2023-06-22T15:33:01.322Z,34.33
2023-06-22T15:36:05.783Z,34.05
2023-06-22T15:39:08.726Z,34.21
2023-06-22T15:42:11.507Z,34.06
2023-06-22T15:45:14.715Z,33.83
2023-06-22T15:48:17.490Z,33.66
2023-06-22T15:51:20.207Z,33.75
2023-06-22T15:54:22.963Z,33.57
2023-06-22T15:57:27.706Z,33.63
2023-06-22T16:00:30.818Z,33.38
2023-06-22T16:03:33.847Z,33.18
2023-06-22T16:06:37.187Z,33.30
2023-06-22T16:09:40.731Z,33.24
2023-06-22T16:12:45.264Z,33.32
2023-06-22T16:15:47.925Z,33.37
2023-06-22T16:18:51.132Z,33.32
2023-06-22T16:21:53.904Z,33.16
2023-06-22T16:24:57.116Z,33.11
2023-06-22T16:27:59.973Z,32.99
2023-06-22T16:31:02.792Z,33.17
2023-06-22T16:34:05.829Z,33.16
2023-06-22T16:37:08.579Z,33.08
2023-06-22T16:40:11.573Z,32.85
2023-06-22T16:43:14.326Z,32.92
2023-06-22T16:46:17.160Z,32.72
2023-06-22T16:49:19.971Z,32.64
2023-06-22T16:52:22.740Z,32.69
2023-06-22T16:55:25.834Z,32.59
2023-06-22T16:58:30.009Z,32.61
2023-06-22T17:01:34.649Z,32.52
2023-06-22T17:04:38.458Z,32.42
2023-06-22T17:07:48.764Z,32.30
2023-06-22T17:10:51.905Z,32.27
2023-06-22T17:13:55.233Z,32.21
2023-06-22T17:16:59.137Z,32.12
2023-06-22T17:20:02.114Z,32.10
2023-06-22T17:23:04.979Z,32.05
2023-06-22T17:26:08.484Z,31.98
2023-06-22T17:29:11.292Z,31.72
2023-06-22T17:32:14.630Z,31.70
2023-06-22T17:35:17.665Z,31.64
2023-06-22T17:38:23.719Z,31.59
2023-06-22T17:41:34.082Z,31.55
2023-06-22T17:44:37.372Z,31.43
2023-06-22T17:47:40.127Z,31.38
2023-06-22T17:50:43.649Z,31.37
2023-06-22T17:53:51.113Z,31.23
2023-06-22T17:56:53.981Z,31.12
2023-06-22T17:59:56.751Z,30.98
2023-06-22T18:02:59.978Z,30.90
2023-06-22T18:06:02.827Z,30.82
2023-06-22T18:09:07.142Z,30.74
2023-06-22T18:12:12.341Z,30.65
2023-06-22T18:15:15.200Z,30.56
2023-06-22T18:18:18.558Z,30.44
2023-06-22T18:21:22.631Z,30.41
2023-06-22T18:24:25.855Z,30.33
2023-06-22T18:27:29.508Z,30.19
2023-06-22T18:30:32.994Z,30.05
2023-06-22T18:33:35.799Z,29.97
2023-06-22T18:36:44.024Z,29.85
2023-06-22T18:39:51.237Z,29.66
2023-06-22T18:43:00.948Z,29.52
2023-06-22T18:46:35.996Z,29.43
2023-06-22T18:49:42.249Z,29.30
2023-06-22T18:52:44.958Z,29.14
2023-06-22T18:55:52.185Z,29.01
2023-06-22T18:58:58.066Z,28.91
2023-06-22T19:02:03.646Z,28.79
2023-06-22T19:05:12.386Z,28.71
2023-06-22T19:08:15.224Z,28.59
2023-06-22T19:11:17.962Z,28.52
2023-06-22T19:14:24.378Z,28.50
2023-06-22T19:17:27.176Z,28.39
2023-06-22T19:20:35.393Z,28.38
2023-06-22T19:23:42.157Z,28.32
2023-06-22T19:26:52.351Z,28.22
2023-06-22T19:29:57.035Z,28.11
2023-06-22T19:33:00.869Z,28.01
2023-06-22T19:36:04.402Z,27.90
2023-06-22T19:39:07.144Z,27.82
2023-06-22T19:42:10.563Z,27.76
2023-06-22T19:45:18.457Z,27.71
2023-06-22T19:48:26.002Z,27.68
2023-06-22T19:51:37.620Z,27.61
2023-06-22T19:54:41.789Z,27.53
2023-06-22T19:57:47.434Z,27.48
2023-06-22T20:00:56.252Z,27.42
2023-06-22T20:03:59.083Z,27.38
2023-06-22T20:07:06.587Z,27.38
2023-06-22T20:10:20.737Z,27.29
2023-06-22T20:13:23.474Z,27.25
2023-06-22T20:16:30.673Z,27.20
2023-06-22T20:19:43.739Z,27.11
2023-06-22T20:22:47.607Z,27.03
2023-06-22T20:25:53.173Z,26.96
2023-06-22T20:28:56.115Z,26.90
2023-06-22T20:32:10.153Z,26.84
2023-06-22T20:35:13.001Z,26.81
2023-06-22T20:38:16.370Z,26.77
2023-06-22T20:41:19.215Z,26.79
2023-06-22T20:44:22.845Z,26.75
2023-06-22T20:47:25.685Z,26.70
2023-06-22T20:50:32.379Z,26.69
2023-06-22T20:53:35.152Z,26.61
2023-06-22T20:56:37.931Z,26.55
2023-06-22T20:59:40.782Z,26.50
2023-06-22T21:02:45.260Z,26.45
2023-06-22T21:05:48.160Z,26.38
2023-06-22T21:08:50.958Z,26.39
2023-06-22T21:11:54.351Z,26.31
2023-06-22T21:14:57.705Z,26.39
2023-06-22T21:18:00.483Z,26.25
2023-06-22T21:21:03.349Z,26.20
2023-06-22T21:24:06.438Z,26.13
2023-06-22T21:27:09.300Z,26.06
2023-06-22T21:30:14.350Z,26.05
2023-06-22T21:33:17.060Z,26.02
2023-06-22T21:36:19.892Z,25.92
2023-06-22T21:39:22.723Z,25.84
2023-06-22T21:42:28.126Z,25.78
2023-06-22T21:45:31.070Z,25.72
2023-06-22T21:48:33.962Z,25.78
2023-06-22T21:51:36.813Z,25.91
2023-06-22T21:54:39.746Z,25.88
2023-06-22T21:57:42.415Z,25.63
2023-06-22T22:00:45.081Z,25.43
2023-06-22T22:03:47.873Z,25.41
2023-06-22T22:06:52.006Z,25.36
2023-06-22T22:09:55.050Z,25.36
2023-06-22T22:12:57.885Z,25.31
2023-06-22T22:16:00.954Z,25.28
2023-06-22T22:19:03.881Z,25.28
2023-06-22T22:22:07.033Z,25.27
2023-06-22T22:25:09.875Z,25.22
2023-06-22T22:28:12.548Z,25.21
2023-06-22T22:31:16.099Z,25.19
2023-06-22T22:34:18.815Z,25.09
2023-06-22T22:37:21.700Z,25.09
2023-06-22T22:40:24.406Z,25.07
2023-06-22T22:43:27.125Z,25.03
2023-06-22T22:46:58.880Z,24.97
2023-06-22T22:50:01.942Z,24.97
2023-06-22T22:53:05.391Z,24.91
2023-06-22T22:56:08.288Z,24.92
2023-06-22T22:59:11.007Z,24.94
2023-06-22T23:02:13.721Z,24.94
2023-06-22T23:05:16.550Z,24.89
2023-06-22T23:08:19.373Z,24.82
2023-06-22T23:11:22.145Z,24.75
2023-06-22T23:14:24.966Z,24.70
2023-06-22T23:17:28.007Z,24.67
2023-06-22T23:20:30.831Z,24.61
2023-06-22T23:23:33.807Z,24.52
2023-06-22T23:26:36.656Z,24.44
2023-06-22T23:29:39.441Z,24.40
2023-06-22T23:32:42.360Z,24.33
2023-06-22T23:35:45.753Z,24.31
2023-06-22T23:38:48.445Z,24.26
2023-06-22T23:41:51.518Z,24.26
2023-06-22T23:44:54.600Z,24.21
2023-06-22T23:47:57.482Z,24.19
2023-06-22T23:51:00.482Z,24.10
2023-06-22T23:54:03.316Z,24.04
2023-06-22T23:57:07.248Z,23.99
